createdAt,value
2019-04-10T00:00:55.683Z,59
2019-04-10T00:10:59.038Z,59
2019-04-10T00:21:02.378Z,59
2019-04-10T00:31:05.717Z,58
2019-04-10T00:41:10.308Z,58
2019-04-10T00:51:13.731Z,58
2019-04-10T01:01:17.064Z,57
2019-04-10T01:11:21.253Z,57
2019-04-10T01:21:24.653Z,57
2019-04-10T01:31:28.980Z,56
2019-04-10T01:41:34.317Z,57
2019-04-10T01:51:37.672Z,57
2019-04-10T02:01:41.055Z,57
2019-04-10T02:11:44.385Z,56
2019-04-10T02:21:47.949Z,56
2019-04-10T02:31:57.133Z,55
2019-04-10T02:42:03.068Z,56
2019-04-10T02:52:10.896Z,55
2019-04-10T03:02:16.815Z,55
2019-04-10T03:12:23.830Z,56
2019-04-10T03:22:27.788Z,55
2019-04-10T03:32:46.121Z,55
2019-04-10T03:43:01.622Z,54
2019-04-10T03:53:05.692Z,54
2019-04-10T04:03:09.026Z,54
2019-04-10T04:13:12.414Z,55
2019-04-10T04:23:15.755Z,54
2019-04-10T04:33:19.355Z,54
2019-04-10T04:43:23.517Z,54
2019-04-10T04:53:27.926Z,55
2019-04-10T05:03:31.321Z,55
2019-04-10T05:13:35.062Z,55
2019-04-10T05:23:38.680Z,55
2019-04-10T05:33:42.010Z,58
2019-04-10T05:43:45.331Z,59
2019-04-10T05:53:55.403Z,59
2019-04-10T06:03:59.092Z,60
2019-04-10T06:14:03.421Z,58
2019-04-10T06:24:08.018Z,59
2019-04-10T06:34:18.867Z,59
2019-04-10T06:44:22.363Z,60
2019-04-10T06:54:26.995Z,60
2019-04-10T07:04:56.034Z,60
2019-04-10T07:15:09.028Z,59
2019-04-10T07:25:15.846Z,60
2019-04-10T07:35:22.042Z,62
2019-04-10T07:45:27.480Z,61
2019-04-10T07:55:31.128Z,64
2019-04-10T08:05:35.602Z,65
2019-04-10T08:15:38.916Z,66
2019-04-10T08:25:43.282Z,70
2019-04-10T08:35:47.616Z,70
2019-04-10T08:45:55.065Z,81
2019-04-10T08:55:59.074Z,80
2019-04-10T09:06:03.090Z,79
2019-04-10T09:16:06.942Z,80
2019-04-10T09:26:11.546Z,78
2019-04-10T09:36:15.339Z,79
2019-04-10T09:46:18.666Z,79
2019-04-10T09:56:21.984Z,79
2019-04-10T10:06:38.079Z,77
2019-04-10T10:16:42.930Z,76
2019-04-10T10:26:47.461Z,75
2019-04-10T10:36:53.484Z,73
2019-04-10T10:46:58.119Z,73
2019-04-10T10:57:02.694Z,73
2019-04-10T11:07:07.152Z,74
2019-04-10T11:17:12.090Z,37
2019-04-10T11:27:16.199Z,60
2019-04-10T11:39:34.800Z,66
2019-04-10T11:49:48.843Z,65
2019-04-10T11:59:57.592Z,70
2019-04-10T12:12:06.042Z,89
2019-04-10T12:22:09.699Z,143
2019-04-10T12:32:13.009Z,151
2019-04-10T12:42:16.649Z,156
2019-04-10T12:52:20.830Z,148
2019-04-10T13:02:24.152Z,142
2019-04-10T13:12:27.515Z,135
2019-04-10T13:22:31.940Z,127
2019-04-10T13:32:36.212Z,125
2019-04-10T13:42:39.540Z,118
2019-04-10T13:52:42.905Z,113
2019-04-10T14:02:46.225Z,104
2019-04-10T14:12:49.557Z,94
2019-04-10T14:22:53.864Z,92
2019-04-10T14:32:57.192Z,89
2019-04-10T14:43:00.528Z,88
2019-04-10T14:53:03.867Z,88
2019-04-10T15:03:08.604Z,89
2019-04-10T15:13:24.090Z,90
2019-04-10T15:23:29.808Z,88
2019-04-10T15:33:33.139Z,88
2019-04-10T15:43:37.339Z,88
2019-04-10T15:53:41.218Z,87
2019-04-10T16:03:45.121Z,87
2019-04-10T16:13:48.732Z,86
2019-04-10T16:23:52.068Z,86
2019-04-10T16:33:55.387Z,84
2019-04-10T16:44:00.729Z,83
2019-04-10T16:54:04.491Z,82
2019-04-10T17:04:08.999Z,81
2019-04-10T17:14:13.413Z,80
2019-04-10T17:24:17.620Z,79
2019-04-10T17:34:20.997Z,79
2019-04-10T17:44:25.794Z,77
2019-04-10T17:54:31.563Z,77
2019-04-10T18:04:34.995Z,75
2019-04-10T18:14:44.015Z,76
2019-04-10T18:24:47.689Z,75
2019-04-10T18:34:52.260Z,73
2019-04-10T18:44:55.680Z,73
2019-04-10T18:54:59.005Z,72
2019-04-10T19:05:03.748Z,72
2019-04-10T19:15:07.100Z,72
2019-04-10T19:25:10.700Z,71
2019-04-10T19:35:15.070Z,68
2019-04-10T19:45:19.666Z,69
2019-04-10T19:55:24.097Z,69
2019-04-10T20:05:27.616Z,69
2019-04-10T20:15:30.984Z,69
2019-04-10T20:25:34.717Z,69
2019-04-10T20:35:38.220Z,68
2019-04-10T20:45:42.157Z,68
2019-04-10T20:55:46.236Z,67
2019-04-10T21:05:50.824Z,68
2019-04-10T21:15:55.150Z,67
2019-04-10T21:25:59.704Z,67
2019-04-10T21:36:04.067Z,67
2019-04-10T21:46:08.426Z,66
2019-04-10T21:56:12.679Z,67
2019-04-10T22:06:16.017Z,67
2019-04-10T22:16:20.024Z,66
2019-04-10T22:26:23.352Z,66
2019-04-10T22:36:26.895Z,65
2019-04-10T22:46:30.282Z,32
2019-04-10T22:56:33.850Z,65
2019-04-10T23:06:37.716Z,66
2019-04-10T23:16:41.162Z,65
2019-04-10T23:26:45.190Z,65
2019-04-10T23:36:48.843Z,65
2019-04-10T23:46:52.198Z,64
2019-04-10T23:56:56.695Z,64
